createdAt,value
2022-09-07T00:00:53.323Z,7.70
2022-09-07T00:01:53.309Z,6.80
2022-09-07T00:02:53.361Z,7.10
2022-09-07T00:03:53.317Z,6.90
2022-09-07T00:04:53.277Z,7.50
2022-09-07T00:05:53.261Z,7.50
2022-09-07T00:06:53.248Z,7.00
2022-09-07T00:07:53.236Z,6.90
2022-09-07T00:08:53.225Z,6.90
2022-09-07T00:09:53.211Z,7.40
2022-09-07T00:10:53.205Z,7.40
2022-09-07T00:11:53.194Z,7.00
2022-09-07T00:12:53.178Z,7.20
2022-09-07T00:13:53.169Z,7.00
2022-09-07T00:14:53.152Z,7.40
2022-09-07T00:15:53.200Z,7.10
2022-09-07T00:16:53.128Z,7.30
2022-09-07T00:17:53.120Z,6.90
2022-09-07T00:18:53.107Z,6.70
2022-09-07T00:19:53.093Z,6.70
2022-09-07T00:20:53.080Z,7.00
2022-09-07T00:21:53.069Z,7.30
2022-09-07T00:22:53.057Z,6.80
2022-09-07T00:23:53.055Z,6.80
2022-09-07T00:24:53.035Z,6.60
2022-09-07T00:25:54.212Z,7.40
2022-09-07T00:26:53.014Z,6.80
2022-09-07T00:27:52.998Z,7.10
2022-09-07T00:28:52.986Z,7.00
2022-09-07T00:29:52.977Z,7.30
2022-09-07T00:30:52.963Z,7.30
2022-09-07T00:31:53.058Z,7.40
2022-09-07T00:32:52.943Z,7.50
2022-09-07T00:33:52.929Z,7.20
2022-09-07T00:34:52.918Z,7.20
2022-09-07T00:35:52.903Z,7.10
2022-09-07T00:36:52.892Z,7.40
2022-09-07T00:37:52.881Z,7.20
2022-09-07T00:38:52.870Z,7.90
2022-09-07T00:39:52.893Z,7.70
2022-09-07T00:40:52.845Z,7.80
2022-09-07T00:41:52.833Z,7.80
2022-09-07T00:42:52.820Z,7.70
2022-09-07T00:43:52.809Z,7.50
2022-09-07T00:44:52.800Z,8.30
2022-09-07T00:45:52.791Z,7.40
2022-09-07T00:46:52.828Z,7.60
2022-09-07T00:47:52.761Z,7.20
2022-09-07T00:48:52.745Z,6.40
2022-09-07T00:49:52.735Z,6.30
2022-09-07T00:50:52.726Z,6.40
2022-09-07T00:51:52.714Z,6.40
2022-09-07T00:52:52.700Z,6.30
2022-09-07T00:53:52.689Z,5.50
2022-09-07T00:54:52.676Z,4.50
2022-09-07T00:55:52.662Z,4.60
2022-09-07T00:56:52.647Z,3.80
2022-09-07T00:57:52.640Z,4.40
2022-09-07T00:58:52.625Z,4.40
2022-09-07T00:59:52.614Z,4.60
2022-09-07T01:00:52.602Z,4.20
2022-09-07T01:01:52.720Z,3.80
2022-09-07T01:02:52.797Z,3.90
2022-09-07T01:03:52.566Z,3.60
2022-09-07T01:04:52.550Z,3.50
2022-09-07T01:05:52.543Z,4.30
2022-09-07T01:06:52.528Z,3.90
2022-09-07T01:07:52.512Z,3.80
2022-09-07T01:08:52.500Z,3.50
2022-09-07T01:09:52.489Z,3.60
2022-09-07T01:10:52.475Z,3.30
2022-09-07T01:11:52.457Z,3.40
2022-09-07T01:12:52.448Z,3.80
2022-09-07T01:13:52.436Z,3.70
2022-09-07T01:14:52.422Z,3.20
2022-09-07T01:15:52.493Z,3.10
2022-09-07T01:16:52.399Z,3.40
2022-09-07T01:17:52.388Z,3.50
2022-09-07T01:18:52.377Z,3.30
2022-09-07T01:19:52.369Z,3.50
2022-09-07T01:20:52.345Z,3.40
2022-09-07T01:21:52.332Z,3.10
2022-09-07T01:22:52.320Z,3.40
2022-09-07T01:23:52.311Z,3.00
2022-09-07T01:24:52.299Z,3.70
2022-09-07T01:25:52.284Z,3.20
2022-09-07T01:26:52.268Z,3.30
2022-09-07T01:27:52.262Z,3.30
2022-09-07T01:28:52.249Z,3.20
2022-09-07T01:29:52.235Z,3.50
2022-09-07T01:30:52.275Z,3.30
2022-09-07T01:31:52.217Z,3.20
2022-09-07T01:32:52.196Z,2.70
2022-09-07T01:33:52.187Z,3.30
2022-09-07T01:34:52.169Z,3.00
2022-09-07T01:35:52.160Z,2.70
2022-09-07T01:36:52.145Z,2.90
2022-09-07T01:37:56.768Z,3.10
2022-09-07T01:38:52.128Z,2.70
2022-09-07T01:39:52.183Z,2.90
2022-09-07T01:40:52.093Z,3.00
2022-09-07T01:41:52.088Z,2.50
2022-09-07T01:42:52.069Z,2.70
2022-09-07T01:43:52.056Z,2.50
2022-09-07T01:44:52.041Z,2.70
2022-09-07T01:45:52.033Z,2.70
2022-09-07T01:46:52.018Z,2.80
2022-09-07T01:47:52.007Z,2.60
2022-09-07T01:48:51.993Z,2.90
2022-09-07T01:49:51.978Z,3.10
2022-09-07T01:50:51.964Z,3.10
2022-09-07T01:51:51.959Z,2.70
2022-09-07T01:52:51.940Z,2.90
2022-09-07T01:53:51.926Z,2.70
2022-09-07T01:54:51.934Z,3.00
2022-09-07T01:55:51.903Z,2.70
2022-09-07T01:56:51.889Z,2.70
2022-09-07T01:57:51.880Z,3.00
2022-09-07T01:58:51.862Z,2.80
2022-09-07T01:59:51.851Z,3.00
2022-09-07T02:00:51.837Z,2.80
2022-09-07T02:01:51.879Z,3.00
2022-09-07T02:02:51.865Z,2.80
2022-09-07T02:03:51.798Z,2.80
2022-09-07T02:04:51.788Z,2.90
2022-09-07T02:05:51.775Z,2.80
2022-09-07T02:06:51.759Z,3.20
2022-09-07T02:07:51.746Z,3.00
2022-09-07T02:08:51.734Z,3.50
2022-09-07T02:09:51.725Z,3.00
2022-09-07T02:10:51.711Z,3.20
2022-09-07T02:11:51.699Z,3.10
2022-09-07T02:12:51.682Z,3.40
2022-09-07T02:13:51.672Z,3.00
2022-09-07T02:14:52.800Z,3.00
2022-09-07T02:15:51.747Z,3.50
2022-09-07T02:16:51.635Z,3.20
2022-09-07T02:17:51.622Z,3.30
2022-09-07T02:18:51.606Z,3.20
2022-09-07T02:19:51.593Z,3.40
2022-09-07T02:20:51.582Z,3.10
2022-09-07T02:21:51.570Z,3.50
2022-09-07T02:22:51.555Z,3.00
2022-09-07T02:23:51.542Z,3.30
2022-09-07T02:24:51.528Z,2.80
2022-09-07T02:25:51.517Z,3.00
2022-09-07T02:26:51.500Z,3.50
2022-09-07T02:27:51.492Z,3.00
2022-09-07T02:28:51.474Z,3.40
2022-09-07T02:29:51.462Z,3.20
2022-09-07T02:30:51.502Z,2.90
2022-09-07T02:31:51.442Z,3.30
2022-09-07T02:32:51.422Z,3.40
2022-09-07T02:33:51.410Z,3.40
2022-09-07T02:34:51.402Z,3.60
2022-09-07T02:35:51.391Z,3.40
2022-09-07T02:36:51.380Z,3.00
2022-09-07T02:37:51.366Z,2.90
2022-09-07T02:38:51.349Z,3.00
2022-09-07T02:39:51.406Z,3.40
2022-09-07T02:40:51.323Z,2.90
2022-09-07T02:41:51.311Z,3.20
2022-09-07T02:42:51.298Z,3.10
2022-09-07T02:43:51.286Z,3.50
2022-09-07T02:44:51.271Z,3.10
2022-09-07T02:45:51.319Z,3.80
2022-09-07T02:46:51.245Z,3.20
2022-09-07T02:47:51.231Z,3.30
2022-09-07T02:48:51.219Z,3.30
2022-09-07T02:49:51.211Z,3.30
2022-09-07T02:50:51.194Z,3.70
2022-09-07T02:51:51.181Z,3.70
2022-09-07T02:52:51.173Z,3.70
2022-09-07T02:53:51.162Z,3.50
2022-09-07T02:54:51.145Z,3.40
2022-09-07T02:55:51.132Z,3.60
2022-09-07T02:56:51.118Z,3.40
2022-09-07T02:57:51.104Z,4.00
2022-09-07T02:58:51.092Z,3.70
2022-09-07T02:59:51.077Z,3.20
2022-09-07T03:00:51.072Z,3.40
2022-09-07T03:01:51.147Z,3.50
2022-09-07T03:02:51.137Z,3.60
2022-09-07T03:03:51.023Z,3.50
2022-09-07T03:04:51.014Z,3.50
2022-09-07T03:05:51.001Z,3.70
2022-09-07T03:06:51.002Z,3.80
2022-09-07T03:07:50.975Z,3.60
2022-09-07T03:08:50.954Z,4.20
2022-09-07T03:09:50.941Z,4.40
2022-09-07T03:10:50.927Z,3.70
2022-09-07T03:11:50.918Z,3.90
2022-09-07T03:12:50.905Z,3.40
2022-09-07T03:13:50.893Z,3.90
2022-09-07T03:14:50.874Z,4.00
2022-09-07T03:15:55.545Z,4.10
2022-09-07T03:16:50.849Z,3.60
2022-09-07T03:17:50.839Z,3.80
2022-09-07T03:18:50.832Z,3.60
2022-09-07T03:19:50.814Z,3.50
2022-09-07T03:20:50.800Z,3.60
2022-09-07T03:21:50.788Z,3.50
2022-09-07T03:22:50.772Z,3.80
2022-09-07T03:23:51.973Z,3.50
2022-09-07T03:24:50.745Z,3.90
2022-09-07T03:25:50.730Z,3.20
2022-09-07T03:26:50.716Z,3.80
2022-09-07T03:27:50.706Z,3.80
2022-09-07T03:28:50.690Z,3.20
2022-09-07T03:29:50.682Z,3.90
2022-09-07T03:30:50.750Z,3.80
2022-09-07T03:31:50.651Z,3.40
2022-09-07T03:32:50.638Z,3.70
2022-09-07T03:33:50.622Z,3.50
2022-09-07T03:34:50.609Z,3.50
2022-09-07T03:35:50.594Z,3.50
2022-09-07T03:36:50.581Z,3.40
2022-09-07T03:37:50.568Z,3.50
2022-09-07T03:38:50.555Z,3.60
2022-09-07T03:39:50.588Z,3.40
2022-09-07T03:40:50.530Z,3.30
2022-09-07T03:41:50.520Z,3.60
2022-09-07T03:42:50.503Z,3.40
2022-09-07T03:43:50.492Z,3.70
2022-09-07T03:44:50.479Z,3.60
2022-09-07T03:45:50.520Z,3.60
2022-09-07T03:46:50.450Z,3.70
2022-09-07T03:47:50.435Z,3.60
2022-09-07T03:48:50.442Z,3.90
2022-09-07T03:49:50.409Z,4.00
2022-09-07T03:50:50.394Z,4.20
2022-09-07T03:51:50.380Z,3.50
2022-09-07T03:52:50.371Z,3.70
2022-09-07T03:53:50.352Z,3.70
2022-09-07T03:54:50.337Z,3.40
2022-09-07T03:55:50.325Z,3.40
2022-09-07T03:56:50.314Z,3.60
2022-09-07T03:57:50.299Z,3.40
2022-09-07T03:58:50.288Z,3.70
2022-09-07T03:59:50.268Z,4.00
2022-09-07T04:00:50.262Z,3.60
2022-09-07T04:01:50.299Z,3.70
2022-09-07T04:02:50.271Z,3.60
2022-09-07T04:03:50.219Z,3.80
2022-09-07T04:04:50.203Z,3.80
2022-09-07T04:05:50.189Z,3.60
2022-09-07T04:06:50.180Z,3.40
2022-09-07T04:07:50.162Z,3.40
2022-09-07T04:08:50.152Z,4.00
2022-09-07T04:09:50.136Z,3.60
2022-09-07T04:10:50.124Z,3.70
2022-09-07T04:11:50.120Z,3.70
2022-09-07T04:12:50.106Z,3.90
2022-09-07T04:13:50.077Z,3.90
2022-09-07T04:14:50.066Z,3.70
2022-09-07T04:15:53.776Z,4.00
2022-09-07T04:16:50.109Z,3.90
2022-09-07T04:17:50.029Z,3.60
2022-09-07T04:18:50.011Z,3.60
2022-09-07T04:19:49.999Z,4.60
2022-09-07T04:20:49.986Z,4.10
2022-09-07T04:21:49.976Z,4.30
2022-09-07T04:22:54.093Z,3.80
2022-09-07T04:23:49.941Z,4.10
2022-09-07T04:24:49.935Z,3.90
2022-09-07T04:25:49.916Z,3.50
2022-09-07T04:26:49.900Z,3.70
2022-09-07T04:27:49.889Z,3.80
2022-09-07T04:28:49.886Z,3.80
2022-09-07T04:29:49.863Z,3.90
2022-09-07T04:30:49.955Z,4.20
2022-09-07T04:31:49.832Z,3.40
2022-09-07T04:32:49.823Z,3.70
2022-09-07T04:33:49.826Z,3.60
2022-09-07T04:34:49.794Z,4.00
2022-09-07T04:35:49.780Z,4.00
2022-09-07T04:36:49.765Z,3.80
2022-09-07T04:37:49.752Z,3.90
2022-09-07T04:38:49.736Z,3.90
2022-09-07T04:39:49.757Z,3.90
2022-09-07T04:40:49.710Z,3.70
2022-09-07T04:41:49.692Z,4.20
2022-09-07T04:42:49.679Z,4.20
2022-09-07T04:43:49.667Z,4.20
2022-09-07T04:44:49.658Z,3.70
2022-09-07T04:45:49.699Z,3.60
2022-09-07T04:46:49.624Z,4.30
2022-09-07T04:47:49.619Z,3.70
2022-09-07T04:48:49.596Z,3.90
2022-09-07T04:49:49.588Z,4.10
2022-09-07T04:50:49.573Z,3.90
2022-09-07T04:51:49.560Z,3.90
2022-09-07T04:52:49.550Z,3.50
2022-09-07T04:53:49.529Z,4.10
2022-09-07T04:54:49.519Z,3.80
2022-09-07T04:55:49.501Z,3.90
2022-09-07T04:56:49.496Z,4.00
2022-09-07T04:57:49.475Z,3.90
2022-09-07T04:58:49.460Z,3.80
2022-09-07T04:59:49.448Z,3.40
2022-09-07T05:00:49.507Z,3.80
2022-09-07T05:01:49.425Z,3.90
2022-09-07T05:02:49.509Z,3.80
2022-09-07T05:03:49.391Z,4.30
2022-09-07T05:04:49.377Z,4.80
2022-09-07T05:05:49.362Z,4.60
2022-09-07T05:06:49.348Z,4.20
2022-09-07T05:07:49.334Z,4.10
2022-09-07T05:08:49.324Z,4.10
2022-09-07T05:09:49.315Z,4.00
2022-09-07T05:10:49.326Z,4.10
2022-09-07T05:11:49.279Z,4.30
2022-09-07T05:12:49.269Z,4.20
2022-09-07T05:13:49.249Z,4.20
2022-09-07T05:14:49.241Z,3.90
2022-09-07T05:15:49.224Z,4.40
2022-09-07T05:16:49.251Z,3.80
2022-09-07T05:17:49.195Z,4.20
2022-09-07T05:18:49.207Z,4.30
2022-09-07T05:19:49.170Z,4.20
2022-09-07T05:20:49.156Z,4.20
2022-09-07T05:21:49.138Z,3.80
2022-09-07T05:22:49.126Z,4.20
2022-09-07T05:23:49.117Z,4.00
2022-09-07T05:24:49.098Z,3.90
2022-09-07T05:25:49.083Z,4.00
2022-09-07T05:26:49.070Z,4.30
2022-09-07T05:27:49.061Z,4.40
2022-09-07T05:28:49.325Z,4.30
2022-09-07T05:30:05.240Z,3.90
2022-09-07T05:31:48.997Z,4.10
2022-09-07T05:32:48.985Z,4.00
2022-09-07T05:34:52.301Z,4.60
2022-09-07T05:35:48.946Z,4.40
2022-09-07T05:36:48.934Z,4.40
2022-09-07T05:37:48.918Z,4.00
2022-09-07T05:38:48.909Z,4.20
2022-09-07T05:39:48.964Z,4.30
2022-09-07T05:40:48.877Z,4.40
2022-09-07T05:41:48.857Z,4.60
2022-09-07T05:42:48.848Z,4.50
2022-09-07T05:44:48.821Z,4.10
2022-09-07T05:45:48.834Z,4.20
2022-09-07T05:46:48.792Z,4.70
2022-09-07T05:47:48.781Z,4.50
2022-09-07T05:48:48.768Z,5.00
2022-09-07T05:49:48.751Z,5.30
2022-09-07T05:50:48.742Z,4.60
2022-09-07T05:51:48.724Z,4.30
2022-09-07T05:52:48.713Z,4.70
2022-09-07T05:53:48.700Z,4.80
2022-09-07T05:54:48.691Z,5.30
2022-09-07T05:55:48.666Z,5.00
2022-09-07T05:56:48.662Z,5.20
2022-09-07T05:57:48.642Z,4.90
2022-09-07T05:58:48.630Z,5.20
2022-09-07T05:59:48.615Z,5.00
2022-09-07T06:00:48.603Z,5.40
2022-09-07T06:01:48.762Z,5.30
2022-09-07T06:02:48.662Z,5.20
2022-09-07T06:03:48.559Z,4.80
2022-09-07T06:04:48.547Z,5.20
2022-09-07T06:05:48.539Z,5.00
2022-09-07T06:07:17.604Z,5.10
2022-09-07T06:07:48.506Z,4.80
2022-09-07T06:08:48.505Z,4.90
2022-09-07T06:10:48.468Z,4.90
2022-09-07T06:11:48.450Z,4.60
2022-09-07T06:12:49.410Z,4.90
2022-09-07T06:13:48.422Z,4.70
2022-09-07T06:14:48.410Z,5.00
2022-09-07T06:15:48.399Z,5.00
2022-09-07T06:16:48.457Z,4.70
2022-09-07T06:17:48.375Z,4.50
2022-09-07T06:18:48.373Z,5.30
2022-09-07T06:19:48.343Z,4.90
2022-09-07T06:20:48.334Z,5.00
2022-09-07T06:21:48.316Z,4.70
2022-09-07T06:22:48.306Z,4.60
2022-09-07T06:23:48.290Z,5.40
2022-09-07T06:24:48.282Z,4.90
2022-09-07T06:25:48.261Z,5.60
2022-09-07T06:26:48.252Z,4.90
2022-09-07T06:27:48.242Z,5.10
2022-09-07T06:28:50.111Z,5.10
2022-09-07T06:29:48.216Z,4.70
2022-09-07T06:30:48.201Z,4.50
2022-09-07T06:32:48.170Z,4.90
2022-09-07T06:33:48.168Z,4.60
2022-09-07T06:34:48.148Z,4.50
2022-09-07T06:35:48.136Z,4.70
2022-09-07T06:36:48.123Z,5.50
2022-09-07T06:37:48.113Z,4.70
2022-09-07T06:38:48.098Z,5.00
2022-09-07T06:39:48.121Z,5.20
2022-09-07T06:40:48.246Z,5.00
2022-09-07T06:42:03.354Z,4.70
2022-09-07T06:42:48.070Z,4.50
2022-09-07T06:43:48.031Z,4.50
2022-09-07T06:44:48.026Z,4.50
2022-09-07T06:45:48.051Z,4.50
2022-09-07T06:47:03.982Z,4.40
2022-09-07T06:47:47.983Z,4.40
2022-09-07T06:48:47.968Z,5.20
2022-09-07T06:49:47.953Z,4.70
2022-09-07T06:50:47.940Z,5.20
2022-09-07T06:51:47.929Z,4.40
2022-09-07T06:53:48.199Z,4.50
2022-09-07T06:55:03.406Z,5.00
2022-09-07T06:55:47.879Z,4.40
2022-09-07T06:56:47.866Z,4.60
2022-09-07T06:57:47.856Z,4.30
2022-09-07T06:58:47.848Z,4.90
2022-09-07T06:59:47.833Z,4.00
2022-09-07T07:00:47.928Z,4.40
2022-09-07T07:01:47.811Z,4.10
2022-09-07T07:02:47.814Z,4.10
2022-09-07T07:03:47.785Z,4.30
2022-09-07T07:04:47.781Z,4.00
2022-09-07T07:05:47.765Z,4.10
2022-09-07T07:06:47.757Z,4.60
2022-09-07T07:07:47.739Z,3.70
2022-09-07T07:08:47.732Z,3.80
2022-09-07T07:09:47.722Z,3.00
2022-09-07T07:10:47.707Z,4.00
2022-09-07T07:11:47.697Z,3.90
2022-09-07T07:12:47.699Z,4.00
2022-09-07T07:13:47.697Z,3.80
2022-09-07T07:14:47.672Z,3.40
2022-09-07T07:15:47.662Z,3.40
2022-09-07T07:16:47.702Z,3.30
2022-09-07T07:17:53.193Z,4.00
2022-09-07T07:18:47.627Z,4.20
2022-09-07T07:19:47.618Z,3.70
2022-09-07T07:20:47.609Z,3.60
2022-09-07T07:22:47.589Z,3.70
2022-09-07T07:23:47.583Z,3.70
2022-09-07T07:24:47.568Z,3.70
2022-09-07T07:25:47.550Z,3.90
2022-09-07T07:26:47.545Z,4.10
2022-09-07T07:27:47.529Z,3.80
2022-09-07T07:29:03.885Z,3.90
2022-09-07T07:29:47.508Z,4.60
2022-09-07T07:30:47.495Z,4.10
2022-09-07T07:31:47.486Z,4.20
2022-09-07T07:32:47.476Z,4.20
2022-09-07T07:33:47.570Z,4.00
2022-09-07T07:34:47.460Z,3.80
2022-09-07T07:35:47.432Z,4.40
2022-09-07T07:36:47.434Z,3.90
2022-09-07T07:37:47.418Z,4.50
2022-09-07T07:39:03.266Z,4.20
2022-09-07T07:40:19.194Z,4.30
2022-09-07T07:41:56.448Z,4.80
2022-09-07T07:42:47.356Z,4.30
2022-09-07T07:43:47.343Z,3.80
2022-09-07T07:44:47.369Z,4.70
2022-09-07T07:46:47.335Z,4.30
2022-09-07T07:47:47.301Z,5.30
2022-09-07T07:48:47.284Z,5.40
2022-09-07T07:49:47.615Z,5.10
2022-09-07T07:50:47.261Z,5.60
2022-09-07T07:52:50.775Z,5.60
2022-09-07T07:53:47.241Z,5.30
2022-09-07T07:54:47.223Z,5.40
2022-09-07T07:55:47.214Z,5.40
2022-09-07T07:56:47.209Z,5.20
2022-09-07T07:57:47.197Z,5.80
2022-09-07T07:58:47.194Z,5.80
2022-09-07T07:59:47.177Z,6.10
2022-09-07T08:00:55.944Z,6.40
2022-09-07T08:01:47.273Z,7.50
2022-09-07T08:02:47.180Z,8.20
2022-09-07T08:03:47.138Z,8.40
2022-09-07T08:04:47.130Z,7.60
2022-09-07T08:05:47.140Z,6.70
2022-09-07T08:06:47.112Z,7.90
2022-09-07T08:07:47.100Z,8.20
2022-09-07T08:08:47.089Z,8.30
2022-09-07T08:09:47.079Z,9.10
2022-09-07T08:10:47.070Z,8.20
2022-09-07T08:11:47.064Z,9.50
2022-09-07T08:12:47.047Z,8.50
2022-09-07T08:13:47.039Z,10.00
2022-09-07T08:14:47.026Z,10.10
2022-09-07T08:15:47.331Z,8.90
2022-09-07T08:16:47.126Z,9.10
2022-09-07T08:17:46.991Z,9.90
2022-09-07T08:18:47.242Z,10.30
2022-09-07T08:19:46.971Z,9.90
2022-09-07T08:20:46.961Z,10.60
2022-09-07T08:21:46.974Z,10.10
2022-09-07T08:22:46.936Z,9.90
2022-09-07T08:23:46.929Z,10.10
2022-09-07T08:24:46.913Z,10.60
2022-09-07T08:25:46.906Z,10.50
2022-09-07T08:26:46.888Z,12.00
2022-09-07T08:27:46.882Z,9.90
2022-09-07T08:28:46.869Z,10.50
2022-09-07T08:29:46.858Z,10.20
2022-09-07T08:30:46.851Z,10.40
2022-09-07T08:31:46.917Z,10.20
2022-09-07T08:32:46.823Z,10.60
2022-09-07T08:33:46.811Z,11.10
2022-09-07T08:34:46.811Z,10.90
2022-09-07T08:35:46.790Z,11.00
2022-09-07T08:36:46.778Z,10.80
2022-09-07T08:37:46.788Z,11.10
2022-09-07T08:38:46.755Z,11.40
2022-09-07T08:39:46.828Z,10.90
2022-09-07T08:40:46.729Z,11.30
2022-09-07T08:41:46.719Z,11.10
2022-09-07T08:42:46.710Z,12.30
2022-09-07T08:43:49.104Z,12.80
2022-09-07T08:44:46.686Z,12.60
2022-09-07T08:45:46.675Z,12.80
2022-09-07T08:46:46.742Z,12.20
2022-09-07T08:47:46.644Z,12.60
2022-09-07T08:48:46.634Z,12.50
2022-09-07T08:49:46.628Z,13.00
2022-09-07T08:50:46.619Z,12.10
2022-09-07T08:51:46.603Z,12.40
2022-09-07T08:52:46.603Z,12.90
2022-09-07T08:53:46.621Z,13.60
2022-09-07T08:54:46.572Z,13.80
2022-09-07T08:55:46.557Z,13.20
2022-09-07T08:57:46.527Z,14.20
2022-09-07T08:58:50.310Z,13.00
2022-09-07T08:59:46.501Z,14.90
2022-09-07T09:00:46.491Z,14.10
2022-09-07T09:02:27.132Z,14.50
2022-09-07T09:05:46.683Z,16.10
2022-09-07T09:06:46.559Z,16.00
2022-09-07T09:07:46.409Z,16.50
2022-09-07T09:08:46.392Z,16.70
2022-09-07T09:09:46.402Z,16.80
2022-09-07T09:10:46.374Z,15.70
2022-09-07T09:11:46.359Z,16.00
2022-09-07T09:12:46.345Z,15.70
2022-09-07T09:13:46.334Z,16.20
2022-09-07T09:14:46.321Z,16.20
2022-09-07T09:15:46.346Z,15.80
2022-09-07T09:16:46.303Z,15.20
2022-09-07T09:17:46.287Z,16.20
2022-09-07T09:18:46.281Z,18.00
2022-09-07T09:19:46.267Z,16.60
2022-09-07T09:20:46.259Z,17.30
2022-09-07T09:21:46.248Z,16.70
2022-09-07T09:22:46.230Z,16.40
2022-09-07T09:23:46.216Z,16.40
2022-09-07T09:24:46.215Z,15.80
2022-09-07T09:25:46.222Z,16.70
2022-09-07T09:26:46.221Z,17.00
2022-09-07T09:27:46.175Z,17.30
2022-09-07T09:28:46.165Z,15.50
2022-09-07T09:29:46.157Z,16.50
2022-09-07T09:30:46.145Z,15.70
2022-09-07T09:31:46.151Z,13.80
2022-09-07T09:32:46.127Z,16.30
2022-09-07T09:33:46.117Z,16.40
2022-09-07T09:34:46.100Z,16.80
2022-09-07T09:35:46.087Z,16.60
2022-09-07T09:36:46.092Z,16.70
2022-09-07T09:37:46.065Z,16.80
2022-09-07T09:38:46.058Z,18.00
2022-09-07T09:39:48.083Z,16.50
2022-09-07T09:40:46.033Z,17.30
2022-09-07T09:41:46.040Z,17.40
2022-09-07T09:42:46.012Z,17.30
2022-09-07T09:43:46.000Z,17.50
2022-09-07T09:44:45.991Z,17.90
2022-09-07T09:46:46.139Z,17.50
2022-09-07T09:47:46.009Z,18.30
2022-09-07T09:48:45.955Z,18.90
2022-09-07T09:49:45.929Z,18.90
2022-09-07T09:52:51.571Z,18.60
2022-09-07T09:53:45.882Z,18.30
2022-09-07T09:54:45.877Z,18.80
2022-09-07T09:55:45.861Z,15.90
2022-09-07T09:56:45.849Z,15.30
2022-09-07T09:59:04.764Z,16.30
2022-09-07T10:00:04.202Z,15.90
2022-09-07T10:04:04.449Z,16.80
2022-09-07T10:04:45.755Z,15.10
2022-09-07T10:05:45.744Z,15.40
2022-09-07T10:06:45.733Z,15.50
2022-09-07T10:07:45.718Z,17.30
2022-09-07T10:08:45.712Z,15.00
2022-09-07T10:09:45.700Z,14.50
2022-09-07T10:10:45.689Z,15.90
2022-09-07T10:12:45.663Z,15.70
2022-09-07T10:13:46.839Z,15.20
2022-09-07T10:14:45.647Z,16.10
2022-09-07T10:15:45.660Z,15.30
2022-09-07T10:16:45.619Z,15.10
2022-09-07T10:17:45.617Z,15.50
2022-09-07T10:18:45.597Z,15.20
2022-09-07T10:19:45.577Z,15.10
2022-09-07T10:20:45.567Z,14.60
2022-09-07T10:21:45.558Z,15.10
2022-09-07T10:22:49.597Z,15.30
2022-09-07T10:23:45.534Z,15.20
2022-09-07T10:24:45.522Z,15.60
2022-09-07T10:25:45.513Z,14.10
2022-09-07T10:26:45.498Z,14.30
2022-09-07T10:27:45.488Z,13.60
2022-09-07T10:29:45.483Z,15.30
2022-09-07T10:30:45.489Z,15.00
2022-09-07T10:31:45.482Z,14.40
2022-09-07T10:32:45.449Z,14.20
2022-09-07T10:34:25.656Z,15.10
2022-09-07T10:34:45.405Z,14.00
2022-09-07T10:35:45.393Z,14.60
2022-09-07T10:36:45.380Z,13.40
2022-09-07T10:37:45.369Z,12.80
2022-09-07T10:38:45.359Z,13.40
2022-09-07T10:39:45.438Z,13.20
2022-09-07T10:40:45.337Z,13.80
2022-09-07T10:41:45.331Z,11.80
2022-09-07T10:43:20.638Z,13.10
2022-09-07T10:43:45.305Z,14.20
2022-09-07T10:44:45.294Z,13.10
2022-09-07T10:45:45.301Z,13.00
2022-09-07T10:47:00.667Z,11.80
2022-09-07T10:47:45.258Z,11.80
2022-09-07T10:48:45.249Z,11.80
2022-09-07T10:50:45.225Z,12.00
2022-09-07T10:51:45.214Z,11.80
2022-09-07T10:52:45.203Z,11.40
2022-09-07T10:53:45.464Z,12.10
2022-09-07T10:54:45.181Z,12.30
2022-09-07T10:55:45.172Z,12.10
2022-09-07T10:56:45.164Z,11.70
2022-09-07T10:57:48.884Z,11.90
2022-09-07T11:00:11.812Z,11.30
2022-09-07T11:00:45.112Z,10.90
2022-09-07T11:01:45.310Z,11.30
2022-09-07T11:03:24.856Z,11.10
2022-09-07T11:03:45.459Z,11.60
2022-09-07T11:04:45.070Z,11.00
2022-09-07T11:05:45.062Z,12.30
2022-09-07T11:06:45.040Z,11.40
2022-09-07T11:07:45.038Z,11.40
2022-09-07T11:09:45.008Z,13.00
2022-09-07T11:10:44.995Z,13.40
2022-09-07T11:12:01.105Z,12.40
2022-09-07T11:12:44.975Z,12.20
2022-09-07T11:14:11.405Z,10.80
2022-09-07T11:14:44.949Z,10.20
2022-09-07T11:15:44.988Z,10.10
2022-09-07T11:16:52.359Z,10.70
2022-09-07T11:17:47.376Z,9.50
2022-09-07T11:18:44.908Z,9.20
2022-09-07T11:19:44.889Z,8.20
2022-09-07T11:20:44.883Z,8.60
2022-09-07T11:22:00.282Z,7.80
2022-09-07T11:22:44.861Z,7.50
2022-09-07T11:23:44.845Z,9.30
2022-09-07T11:24:45.207Z,9.40
2022-09-07T11:25:46.675Z,8.20
2022-09-07T11:26:44.815Z,8.40
2022-09-07T11:27:44.803Z,8.30
2022-09-07T11:28:45.353Z,7.00
2022-09-07T11:29:44.800Z,8.90
2022-09-07T11:30:44.827Z,8.30
2022-09-07T11:31:44.763Z,9.10
2022-09-07T11:32:44.752Z,8.80
2022-09-07T11:34:23.679Z,8.40
2022-09-07T11:34:45.181Z,8.20
2022-09-07T11:35:44.715Z,8.80
2022-09-07T11:36:44.707Z,7.50
2022-09-07T11:37:44.692Z,7.40
2022-09-07T11:38:44.685Z,7.50
2022-09-07T11:39:44.697Z,7.20
2022-09-07T11:40:44.662Z,7.00
2022-09-07T11:41:44.647Z,6.80
2022-09-07T11:42:44.718Z,6.80
2022-09-07T11:43:44.632Z,6.30
2022-09-07T11:44:44.617Z,7.00
2022-09-07T11:45:44.604Z,6.50
2022-09-07T11:46:44.689Z,6.30
2022-09-07T11:47:44.588Z,6.20
2022-09-07T11:48:44.578Z,5.90
2022-09-07T11:49:49.402Z,5.90
2022-09-07T11:50:44.558Z,6.20
2022-09-07T11:51:44.538Z,6.70
2022-09-07T11:52:44.534Z,7.50
2022-09-07T11:53:44.519Z,7.20
2022-09-07T11:54:44.506Z,7.60
2022-09-07T11:55:44.496Z,7.30
2022-09-07T11:56:45.671Z,7.30
2022-09-07T11:57:44.477Z,7.40
2022-09-07T11:58:44.466Z,6.60
2022-09-07T11:59:44.448Z,7.10
2022-09-07T12:00:44.446Z,6.50
2022-09-07T12:01:44.431Z,6.00
2022-09-07T12:02:58.951Z,6.10
2022-09-07T12:03:44.611Z,5.90
2022-09-07T12:04:44.459Z,6.40
2022-09-07T12:05:44.414Z,6.10
2022-09-07T12:06:44.390Z,6.00
2022-09-07T12:07:44.370Z,5.90
2022-09-07T12:08:44.353Z,6.00
2022-09-07T12:09:44.341Z,6.20
2022-09-07T12:10:44.340Z,6.30
2022-09-07T12:11:44.319Z,5.70
2022-09-07T12:12:44.307Z,5.40
2022-09-07T12:13:44.304Z,5.60
2022-09-07T12:14:44.286Z,6.00
2022-09-07T12:15:44.332Z,5.00
2022-09-07T12:16:44.265Z,5.40
2022-09-07T12:17:44.253Z,5.10
2022-09-07T12:18:44.243Z,5.60
2022-09-07T12:19:44.232Z,5.00
2022-09-07T12:20:44.219Z,5.20
2022-09-07T12:21:44.231Z,6.30
2022-09-07T12:22:44.206Z,6.50
2022-09-07T12:23:44.190Z,5.90
2022-09-07T12:24:44.182Z,6.10
2022-09-07T12:25:44.170Z,6.30
2022-09-07T12:26:44.157Z,5.80
2022-09-07T12:27:44.150Z,6.20
2022-09-07T12:28:44.133Z,5.70
2022-09-07T12:29:45.572Z,6.50
2022-09-07T12:30:44.142Z,6.60
2022-09-07T12:31:57.225Z,5.90
2022-09-07T12:32:59.379Z,6.60
2022-09-07T12:33:44.092Z,6.00
2022-09-07T12:34:44.076Z,6.50
2022-09-07T12:35:44.063Z,6.50
2022-09-07T12:36:44.053Z,5.80
2022-09-07T12:37:44.126Z,6.80
2022-09-07T12:38:44.032Z,5.90
2022-09-07T12:39:44.138Z,5.60
2022-09-07T12:40:44.013Z,5.80
2022-09-07T12:41:44.784Z,5.60
2022-09-07T12:42:43.997Z,6.60
2022-09-07T12:43:43.989Z,6.10
2022-09-07T12:44:43.974Z,5.40
2022-09-07T12:45:43.976Z,5.80
2022-09-07T12:46:44.037Z,6.50
2022-09-07T12:47:43.945Z,6.10
2022-09-07T12:48:43.941Z,5.40
2022-09-07T12:49:43.933Z,7.70
2022-09-07T12:50:43.913Z,6.60
2022-09-07T12:52:03.266Z,7.30
2022-09-07T12:52:43.899Z,7.40
2022-09-07T12:53:43.905Z,6.40
2022-09-07T12:54:43.884Z,7.50
2022-09-07T12:56:44.219Z,7.60
2022-09-07T12:57:43.862Z,7.80
2022-09-07T12:58:43.836Z,7.40
2022-09-07T12:59:43.835Z,6.70
2022-09-07T13:00:43.827Z,6.60
2022-09-07T13:01:43.950Z,7.50
2022-09-07T13:02:43.927Z,7.40
2022-09-07T13:03:51.885Z,7.60
2022-09-07T13:04:43.787Z,6.70
2022-09-07T13:05:43.778Z,8.20
2022-09-07T13:07:43.756Z,8.00
2022-09-07T13:08:43.751Z,7.70
2022-09-07T13:09:43.762Z,7.60
2022-09-07T13:10:43.726Z,8.00
2022-09-07T13:11:43.748Z,8.10
2022-09-07T13:12:59.109Z,8.60
2022-09-07T13:14:13.413Z,8.80
2022-09-07T13:14:43.885Z,9.40
2022-09-07T13:15:43.817Z,8.90
2022-09-07T13:17:43.674Z,7.60
2022-09-07T13:18:43.650Z,7.40
2022-09-07T13:19:43.640Z,8.30
2022-09-07T13:20:43.634Z,8.10
2022-09-07T13:21:43.624Z,8.60
2022-09-07T13:22:43.611Z,8.00
2022-09-07T13:23:43.607Z,7.80
2022-09-07T13:24:46.303Z,7.80
2022-09-07T13:25:43.611Z,7.40
2022-09-07T13:26:45.429Z,9.30
2022-09-07T13:27:43.582Z,9.50
2022-09-07T13:28:43.560Z,8.80
2022-09-07T13:29:43.547Z,8.40
2022-09-07T13:30:43.579Z,9.30
2022-09-07T13:31:43.546Z,9.30
2022-09-07T13:33:43.537Z,8.80
2022-09-07T13:34:43.499Z,8.30
2022-09-07T13:35:43.494Z,9.40
2022-09-07T13:36:43.478Z,9.30
2022-09-07T13:37:43.472Z,9.60
2022-09-07T13:38:43.460Z,9.90
2022-09-07T13:39:43.512Z,8.20
2022-09-07T13:40:43.447Z,7.80
2022-09-07T13:41:43.454Z,7.50
2022-09-07T13:42:43.419Z,7.30
2022-09-07T13:43:43.411Z,8.10